CheckWX is a tool to help pilots better visualize weather data.  It is not intended as a substitute for an official pre-flight weather briefing.

15:41:28 UTC

KCVN METAR
Clovis Municipal Airport
Clovis, New Mexico, USA
Current

45 mins ago

KCVN 051456Z AUTO 36011KT 10SM CLR 23/18 A3012 RMK AO2 SLP154 60000 T02330178 51011
Observed
Jul-5 @ 14:56 UTC
Wind
  • 360° at 11 KTS
Visibility
10 SM
Flight Rules
VFR
Cloud Levels
  • Clear skies
Temperature
23°C / 73°F
Dewpoint
18°C / 64°F
Humidity
74%
Altimeter
30.12" Hg
Pressure
1020.02 hPa
Previous

2 hours ago

KCVN 051356Z AUTO 34011KT 10SM CLR 21/18 A3011 RMK AO2 SLP151 T02110178
Observed
Jul-5 @ 13:56 UTC
Wind
  • 340° at 11 KTS
Visibility
10 SM
Flight Rules
VFR
Cloud Levels
  • Clear skies
Temperature
21°C / 70°F
Dewpoint
18°C / 64°F
Humidity
83%
Altimeter
30.11" Hg
Pressure
1019.62 hPa
Previous

3 hours ago

KCVN 051256Z AUTO 32007KT 10SM CLR 19/17 A3010 RMK AO2 RAE23 SLP145 P0000 T01890172
Observed
Jul-5 @ 12:56 UTC
Wind
  • 320° at 7 KTS
Visibility
10 SM
Flight Rules
VFR
Cloud Levels
  • Clear skies
Temperature
19°C / 66°F
Dewpoint
17°C / 63°F
Humidity
88%
Altimeter
30.1" Hg
Pressure
1019.32 hPa
Current Rain
0.01"